Time;durP1;ratioP1;P1;durP2;ratioP2;P2;SDS_P1;SDS_P2;PMS_P1;PMS_P2;Temp;Humidity;BMP_temperature;BMP_pressure;BME280_temperature;BME280_humidity;BME280_pressure;Samples;Min_cycle;Max_cycle;Signal;HPM_P1;HPM_P2
2023/06/06 00:00:13;;;;;;;3.25;2.05;;;;;;;19.27;37.20;97210.13;4791194;29;20234;-77
2023/06/06 00:02:41;;;;;;;2.88;1.80;;;;;;;19.25;37.17;97201.75;4809787;29;20393;-77
2023/06/06 00:05:07;;;;;;;2.55;1.90;;;;;;;19.23;36.65;97189.94;4757392;29;20303;-77
2023/06/06 00:07:34;;;;;;;2.28;2.03;;;;;;;19.24;37.15;97200.19;4772973;29;20032;-77
2023/06/06 00:10:01;;;;;;;3.00;2.05;;;;;;;19.23;36.89;97190.72;4787580;29;20285;-78
2023/06/06 00:12:28;;;;;;;2.92;2.13;;;;;;;19.18;36.98;97182.13;4772607;29;20200;-78
2023/06/06 00:14:59;;;;;;;2.97;2.10;;;;;;;19.25;37.72;97196.47;4781579;29;20377;-77
2023/06/06 00:17:25;;;;;;;2.25;1.90;;;;;;;19.17;36.94;97197.19;4790409;29;20055;-77
2023/06/06 00:19:52;;;;;;;4.43;2.30;;;;;;;19.22;37.31;97201.56;4772941;29;20268;-77
2023/06/06 00:22:22;;;;;;;2.38;2.15;;;;;;;19.25;37.45;97196.47;4760352;29;20396;-77
2023/06/06 00:24:48;;;;;;;2.75;2.53;;;;;;;19.09;37.21;97188.13;4786106;29;20280;-77
2023/06/06 00:27:13;;;;;;;3.38;1.85;;;;;;;19.15;37.33;97199.34;4774725;29;20206;-77
2023/06/06 00:29:39;;;;;;;2.00;1.60;;;;;;;19.14;37.06;97187.25;4778169;29;20291;-77
2023/06/06 00:32:04;;;;;;;2.13;1.90;;;;;;;19.10;37.33;97191.53;4779179;29;20108;-77
2023/06/06 00:34:30;;;;;;;3.63;2.08;;;;;;;19.14;37.68;97197.78;4776311;29;20174;-77
2023/06/06 00:36:55;;;;;;;2.60;2.13;;;;;;;18.93;37.92;97188.78;4757637;29;20235;-77
2023/06/06 00:39:21;;;;;;;2.72;2.30;;;;;;;18.87;37.71;97199.44;4779142;29;20344;-78
2023/06/06 00:41:47;;;;;;;3.10;2.25;;;;;;;18.87;38.73;97190.75;4774073;29;20359;-77
2023/06/06 00:44:12;;;;;;;3.25;2.50;;;;;;;18.80;38.25;97185.03;4789657;29;20431;-77
2023/06/06 00:46:38;;;;;;;2.67;1.90;;;;;;;18.84;38.24;97186.84;4794720;29;20136;-77
2023/06/06 00:49:03;;;;;;;2.63;2.08;;;;;;;18.76;38.53;97195.41;4790302;29;20226;-77
2023/06/06 00:51:29;;;;;;;3.03;2.00;;;;;;;18.71;39.38;97198.16;4791793;29;20244;-77
2023/06/06 00:53:55;;;;;;;3.30;2.03;;;;;;;18.63;39.20;97198.88;4776298;29;20223;-77
2023/06/06 00:56:22;;;;;;;2.90;1.92;;;;;;;18.52;39.13;97201.72;4787498;29;20291;-77
2023/06/06 00:58:47;;;;;;;3.80;2.35;;;;;;;18.47;39.74;97196.56;4790200;29;20449;-77
2023/06/06 01:01:13;;;;;;;2.50;2.17;;;;;;;18.49;39.49;97196.25;4791370;29;20219;-77
2023/06/06 01:03:40;;;;;;;2.95;2.20;;;;;;;18.45;40.14;97203.97;4824207;23;20214;-76
2023/06/06 01:06:08;;;;;;;3.40;2.42;;;;;;;18.37;40.77;97188.06;4820402;29;20299;-76
2023/06/06 01:08:35;;;;;;;3.63;2.72;;;;;;;18.41;39.89;97205.63;4821899;29;20314;-76
2023/06/06 01:11:08;;;;;;;2.33;2.00;;;;;;;18.50;40.30;97192.53;4813286;29;20260;-75
2023/06/06 01:13:45;;;;;;;2.45;2.25;;;;;;;18.45;40.42;97201.31;4807307;29;20218;-76
2023/06/06 01:16:15;;;;;;;1.95;1.65;;;;;;;18.33;40.38;97193.13;4790731;29;20280;-75
2023/06/06 01:18:41;;;;;;;2.30;1.90;;;;;;;18.31;40.26;97205.84;4824818;29;20178;-76
2023/06/06 01:21:08;;;;;;;2.25;1.92;;;;;;;18.27;40.29;97204.88;4828275;29;20297;-75
2023/06/06 01:23:35;;;;;;;3.53;1.90;;;;;;;18.25;40.80;97207.00;4810269;29;20261;-75
2023/06/06 01:26:07;;;;;;;2.13;1.90;;;;;;;18.24;40.51;97200.19;4824343;29;20273;-76
2023/06/06 01:28:32;;;;;;;3.83;2.53;;;;;;;18.13;41.90;97208.28;4803752;29;20654;-75
2023/06/06 01:30:58;;;;;;;2.65;2.17;;;;;;;18.09;41.88;97206.50;4797730;29;20289;-76
2023/06/06 01:33:38;;;;;;;5.32;2.42;;;;;;;18.07;42.46;97211.28;4809588;29;20295;-76
2023/06/06 01:36:03;;;;;;;2.28;2.03;;;;;;;18.06;42.73;97215.00;4808288;29;20194;-76
2023/06/06 01:38:44;;;;;;;2.20;2.00;;;;;;;18.04;42.54;97204.75;4814717;29;20197;-76
2023/06/06 01:41:11;;;;;;;2.50;2.30;;;;;;;18.08;42.56;97208.38;4821718;29;20213;-76
2023/06/06 01:43:37;;;;;;;2.72;2.30;;;;;;;18.08;43.01;97207.59;4820149;29;20323;-75
2023/06/06 01:46:03;;;;;;;2.60;2.17;;;;;;;18.03;44.11;97208.47;4791310;29;20648;-76
2023/06/06 01:48:29;;;;;;;3.20;2.22;;;;;;;18.08;44.30;97208.38;4813849;29;20213;-76
2023/06/06 01:50:55;;;;;;;3.75;2.42;;;;;;;18.12;43.86;97206.69;4814383;29;20659;-76
2023/06/06 01:53:21;;;;;;;2.92;2.55;;;;;;;18.07;43.78;97206.81;4807860;29;20107;-75
2023/06/06 01:55:48;;;;;;;2.60;2.33;;;;;;;18.08;44.76;97212.88;4809100;29;20281;-75
2023/06/06 01:58:14;;;;;;;3.35;2.50;;;;;;;17.98;45.35;97207.78;4795015;29;20228;-76
2023/06/06 02:00:40;;;;;;;2.97;2.20;;;;;;;17.84;44.50;97210.34;4818614;29;20182;-76
2023/06/06 02:03:05;;;;;;;3.67;2.50;;;;;;;17.77;44.55;97208.88;4810285;29;20214;-76
2023/06/06 02:05:31;;;;;;;2.40;2.20;;;;;;;17.75;45.02;97211.03;4810855;29;20285;-76
2023/06/06 02:07:56;;;;;;;2.50;2.30;;;;;;;17.78;44.51;97212.28;4806705;29;20278;-75
2023/06/06 02:10:21;;;;;;;4.75;2.60;;;;;;;17.75;44.86;97218.13;4813553;29;20244;-76
2023/06/06 02:12:47;;;;;;;3.95;2.70;;;;;;;17.79;45.03;97213.88;4784679;29;20201;-76
2023/06/06 02:15:13;;;;;;;4.32;2.70;;;;;;;17.79;45.30;97212.00;4793406;29;20211;-76
2023/06/06 02:17:39;;;;;;;2.50;2.28;;;;;;;17.85;45.36;97217.19;4806658;29;20202;-75
2023/06/06 02:20:09;;;;;;;2.92;2.28;;;;;;;17.90;45.74;97223.16;4793348;29;20225;-75
2023/06/06 02:22:34;;;;;;;2.97;2.65;;;;;;;17.74;46.99;97212.09;4809393;29;20190;-77
2023/06/06 02:25:03;;;;;;;3.55;2.65;;;;;;;17.68;46.85;97218.50;4787811;29;20235;-76
2023/06/06 02:27:30;;;;;;;2.67;2.47;;;;;;;17.64;46.76;97219.41;4784957;29;20213;-76
2023/06/06 02:29:56;;;;;;;3.15;2.72;;;;;;;17.83;46.94;97214.84;4809198;29;20216;-75
2023/06/06 02:32:23;;;;;;;3.28;2.75;;;;;;;17.89;46.84;97216.34;4803791;29;20629;-77
2023/06/06 02:34:50;;;;;;;3.40;2.60;;;;;;;17.85;47.37;97225.09;4807360;29;20201;-76
2023/06/06 02:37:15;;;;;;;3.83;2.88;;;;;;;18.01;46.67;97215.88;4787002;29;20284;-76
2023/06/06 02:39:41;;;;;;;3.47;2.72;;;;;;;18.22;45.66;97223.41;4796331;29;20284;-77
2023/06/06 02:42:07;;;;;;;4.10;2.80;;;;;;;18.19;46.23;97229.25;4809722;29;20282;-75
2023/06/06 02:44:33;;;;;;;3.50;2.47;;;;;;;18.05;45.40;97224.75;4797238;29;20697;-76
2023/06/06 02:46:58;;;;;;;4.07;2.72;;;;;;;18.02;45.37;97225.34;4806621;29;20298;-76
2023/06/06 02:49:23;;;;;;;4.25;2.70;;;;;;;17.90;45.46;97217.13;4809585;29;20694;-76
2023/06/06 02:51:49;;;;;;;3.22;2.53;;;;;;;17.92;44.96;97215.78;4799237;29;20255;-75
2023/06/06 02:54:14;;;;;;;2.95;2.30;;;;;;;17.86;44.93;97219.56;4795302;29;20247;-76
2023/06/06 02:56:40;;;;;;;3.30;2.92;;;;;;;17.78;45.05;97213.06;4792732;29;20356;-75
2023/06/06 02:59:07;;;;;;;3.05;2.55;;;;;;;17.64;45.92;97224.66;4793999;29;20676;-75
2023/06/06 03:01:34;;;;;;;3.00;2.50;;;;;;;17.50;45.38;97225.41;4809366;29;20684;-76
2023/06/06 03:03:59;;;;;;;4.70;2.55;;;;;;;17.52;45.63;97230.38;4787141;29;20191;-76
2023/06/06 03:06:24;;;;;;;3.65;2.42;;;;;;;17.53;46.03;97230.09;4809019;29;20288;-76
2023/06/06 03:08:55;;;;;;;3.17;2.85;;;;;;;17.48;46.01;97230.16;4791499;29;20198;-75
2023/06/06 03:11:21;;;;;;;3.20;2.70;;;;;;;17.37;45.89;97220.84;4794714;29;20285;-76
2023/06/06 03:13:46;;;;;;;3.90;2.97;;;;;;;17.41;46.73;97233.16;4795586;29;20435;-76
2023/06/06 03:16:15;;;;;;;5.70;3.17;;;;;;;17.28;46.79;97236.50;4808432;29;20765;-75
2023/06/06 03:18:41;;;;;;;3.10;2.80;;;;;;;17.28;46.77;97233.88;4794931;29;20656;-76
2023/06/06 03:21:07;;;;;;;3.10;2.80;;;;;;;17.25;46.62;97239.72;4809922;29;20281;-77
2023/06/06 03:23:33;;;;;;;2.83;2.55;;;;;;;17.20;46.29;97229.25;4804127;29;20204;-76
2023/06/06 03:25:58;;;;;;;2.97;2.75;;;;;;;17.20;46.09;97237.16;4791535;29;20270;-76
2023/06/06 03:28:23;;;;;;;4.38;3.05;;;;;;;17.17;46.22;97232.47;4812620;29;20289;-76
2023/06/06 03:30:49;;;;;;;3.38;2.90;;;;;;;17.18;46.84;97241.94;4796709;29;20408;-76
2023/06/06 03:33:15;;;;;;;4.85;2.97;;;;;;;17.21;46.56;97244.00;4819608;29;20909;-76
2023/06/06 03:35:41;;;;;;;3.30;2.95;;;;;;;17.23;46.39;97247.88;4795517;29;20270;-76
2023/06/06 03:38:07;;;;;;;2.92;2.70;;;;;;;17.22;46.38;97245.53;4812950;29;20204;-76
2023/06/06 03:40:33;;;;;;;2.83;2.58;;;;;;;17.19;46.37;97241.66;4808678;29;20219;-76
2023/06/06 03:42:58;;;;;;;4.00;2.80;;;;;;;17.19;46.72;97248.75;4800760;29;20285;-77
2023/06/06 03:45:24;;;;;;;4.15;2.72;;;;;;;17.25;46.63;97246.84;4816599;29;20645;-76
2023/06/06 03:47:50;;;;;;;4.05;2.80;;;;;;;17.23;46.83;97239.22;4815592;29;20313;-75
2023/06/06 03:50:15;;;;;;;3.47;3.17;;;;;;;17.26;47.27;97243.91;4799403;29;20287;-75
2023/06/06 03:52:41;;;;;;;3.35;2.80;;;;;;;17.28;47.15;97254.94;4814218;29;20315;-75
2023/06/06 03:55:09;;;;;;;3.97;3.30;;;;;;;17.24;47.34;97246.06;4784671;29;20302;-76
2023/06/06 03:57:35;;;;;;;3.40;2.90;;;;;;;17.18;47.95;97250.59;4798075;29;20803;-76
2023/06/06 04:00:04;;;;;;;3.40;2.78;;;;;;;17.22;47.80;97248.16;4813406;29;20277;-76
2023/06/06 04:02:31;;;;;;;3.10;2.80;;;;;;;17.27;47.42;97249.97;4782209;29;20289;-76
2023/06/06 04:05:01;;;;;;;3.13;2.78;;;;;;;17.27;47.17;97242.06;4781166;29;20222;-76
2023/06/06 04:07:28;;;;;;;4.70;2.88;;;;;;;17.29;47.76;97246.00;4814927;29;20771;-76
2023/06/06 04:09:54;;;;;;;4.30;3.22;;;;;;;17.28;47.27;97249.69;4803801;29;20204;-77
2023/06/06 04:12:20;;;;;;;4.35;2.80;;;;;;;17.28;47.65;97251.53;4800076;29;20223;-76
2023/06/06 04:14:47;;;;;;;3.83;3.33;;;;;;;17.25;47.96;97247.59;4791527;29;20206;-76
2023/06/06 04:17:13;;;;;;;3.83;2.88;;;;;;;17.23;48.38;97253.16;4796826;29;20413;-76
2023/06/06 04:19:38;;;;;;;4.55;2.88;;;;;;;17.20;48.40;97256.38;4796848;29;20219;-76
2023/06/06 04:22:05;;;;;;;4.60;3.38;;;;;;;17.12;49.00;97266.72;4807724;29;20175;-76
2023/06/06 04:24:30;;;;;;;3.55;2.95;;;;;;;17.08;49.31;97260.50;4814433;29;20648;-76
2023/06/06 04:26:57;;;;;;;3.50;3.17;;;;;;;17.08;49.10;97257.84;4808504;29;20211;-76
2023/06/06 04:29:23;;;;;;;4.38;3.50;;;;;;;17.16;48.91;97267.75;4796191;29;20668;-76
2023/06/06 04:31:48;;;;;;;4.07;3.70;;;;;;;17.23;49.42;97262.91;4799832;29;20249;-76
2023/06/06 04:34:14;;;;;;;4.13;3.20;;;;;;;17.24;49.10;97259.22;4813268;29;20202;-76
2023/06/06 04:36:40;;;;;;;4.47;3.17;;;;;;;17.35;49.08;97255.34;4816226;29;20621;-76
2023/06/06 04:39:06;;;;;;;4.15;3.65;;;;;;;17.49;49.03;97270.44;4812455;29;20318;-75
2023/06/06 04:41:33;;;;;;;3.58;3.20;;;;;;;17.44;48.91;97263.38;4795147;29;20217;-75
2023/06/06 04:44:01;;;;;;;3.80;3.42;;;;;;;17.49;49.21;97268.56;4782088;29;20209;-75
2023/06/06 04:46:29;;;;;;;3.72;3.42;;;;;;;17.55;49.37;97267.44;4822122;29;20215;-75
2023/06/06 04:48:56;;;;;;;4.15;3.63;;;;;;;17.72;48.80;97261.66;4773687;29;20190;-75
2023/06/06 04:51:29;;;;;;;3.83;3.30;;;;;;;17.88;48.90;97266.69;4810826;29;20144;-75
2023/06/06 04:53:58;;;;;;;3.95;3.45;;;;;;;17.99;48.93;97268.06;4791870;29;20077;-75
2023/06/06 04:56:26;;;;;;;4.20;3.50;;;;;;;18.04;49.40;97270.59;4807610;29;20269;-75
2023/06/06 04:58:53;;;;;;;3.97;3.50;;;;;;;18.12;50.05;97264.69;4792799;29;20202;-75
2023/06/06 05:01:18;;;;;;;3.83;3.53;;;;;;;18.24;50.07;97263.44;4796717;29;20184;-76
2023/06/06 05:03:44;;;;;;;3.85;3.45;;;;;;;18.28;50.61;97265.19;4795017;29;20209;-76
2023/06/06 05:06:10;;;;;;;4.43;3.50;;;;;;;18.41;50.64;97257.59;4808495;29;20207;-76
2023/06/06 05:08:44;;;;;;;3.92;3.53;;;;;;;18.53;50.59;97271.84;4801855;29;20327;-76
2023/06/06 05:11:11;;;;;;;4.17;3.70;;;;;;;18.51;51.33;97266.06;4808552;29;20769;-76
2023/06/06 05:13:36;;;;;;;4.32;3.65;;;;;;;18.70;51.08;97268.59;4794204;29;20482;-77
2023/06/06 05:16:01;;;;;;;4.88;3.13;;;;;;;18.81;51.09;97260.47;4807739;29;20214;-76
2023/06/06 05:18:30;;;;;;;3.92;3.53;;;;;;;18.93;51.60;97263.41;4791461;29;20366;-76
2023/06/06 05:20:57;;;;;;;3.97;3.58;;;;;;;19.00;51.21;97269.06;4805810;29;20263;-76
2023/06/06 05:23:24;;;;;;;4.30;3.70;;;;;;;19.06;50.93;97272.41;4787043;29;20218;-76
2023/06/06 05:25:50;;;;;;;3.60;3.30;;;;;;;19.14;50.78;97263.78;4790702;29;20380;-76
2023/06/06 05:28:15;;;;;;;4.57;3.45;;;;;;;19.26;50.70;97266.66;4809960;29;20273;-76
2023/06/06 05:30:41;;;;;;;4.55;3.80;;;;;;;19.38;50.88;97273.28;4789711;29;20367;-76
2023/06/06 05:33:08;;;;;;;3.95;3.47;;;;;;;19.50;50.40;97270.91;4805693;29;20211;-77
2023/06/06 05:35:34;;;;;;;3.67;3.38;;;;;;;19.58;50.51;97272.78;4803077;29;20730;-76
2023/06/06 05:37:59;;;;;;;3.83;3.15;;;;;;;19.75;50.03;97272.16;4790752;29;20286;-77
2023/06/06 05:40:25;;;;;;;5.53;3.50;;;;;;;19.87;49.74;97274.25;4776020;29;20296;-77
2023/06/06 05:42:50;;;;;;;3.67;3.25;;;;;;;20.05;49.60;97272.50;4776726;29;20316;-76
2023/06/06 05:45:15;;;;;;;4.32;3.75;;;;;;;20.16;48.90;97273.78;4809633;29;20221;-78
2023/06/06 05:47:41;;;;;;;4.82;4.00;;;;;;;20.35;49.24;97283.34;4807091;29;20202;-76
2023/06/06 05:50:07;;;;;;;3.40;3.10;;;;;;;20.52;48.22;97283.41;4793196;29;20266;-77
2023/06/06 05:52:32;;;;;;;3.50;3.20;;;;;;;20.58;47.86;97282.22;4788797;29;20657;-77
2023/06/06 05:55:03;;;;;;;3.45;3.15;;;;;;;20.75;47.81;97284.16;4774688;29;20253;-76
2023/06/06 05:57:28;;;;;;;3.50;3.20;;;;;;;20.80;47.90;97285.09;4803002;29;20298;-77
2023/06/06 05:59:54;;;;;;;3.38;3.08;;;;;;;20.97;47.65;97287.75;4807800;29;20806;-77
2023/06/06 06:02:20;;;;;;;4.72;3.70;;;;;;;21.03;46.91;97289.19;4805445;29;20283;-77
2023/06/06 06:04:45;;;;;;;5.13;3.22;;;;;;;21.08;47.20;97290.91;4790485;29;20374;-77
2023/06/06 06:07:12;;;;;;;3.85;3.40;;;;;;;21.33;46.58;97289.34;4794099;29;20245;-77
2023/06/06 06:09:37;;;;;;;3.25;2.95;;;;;;;21.38;46.73;97291.84;4792258;29;20191;-77
2023/06/06 06:12:05;;;;;;;4.40;3.20;;;;;;;21.32;46.34;97283.28;4791454;29;20641;-77
2023/06/06 06:14:31;;;;;;;3.30;2.92;;;;;;;21.45;46.10;97289.50;4790279;29;20566;-77
2023/06/06 06:16:56;;;;;;;3.80;3.40;;;;;;;21.67;44.89;97295.75;4802404;29;20215;-77
2023/06/06 06:19:21;;;;;;;3.58;3.28;;;;;;;21.68;44.75;97290.16;4803104;29;20309;-77
2023/06/06 06:21:47;;;;;;;4.10;3.20;;;;;;;21.74;45.40;97288.09;4805407;29;20735;-77
2023/06/06 06:24:12;;;;;;;3.75;3.13;;;;;;;21.98;44.41;97297.44;4808274;29;20274;-76
2023/06/06 06:26:37;;;;;;;4.25;3.08;;;;;;;22.14;44.14;97290.53;4800684;29;20227;-77
2023/06/06 06:29:03;;;;;;;4.43;3.08;;;;;;;22.31;43.53;97294.22;4790324;29;20209;-78
2023/06/06 06:31:28;;;;;;;4.00;3.33;;;;;;;22.44;43.68;97291.38;4805313;29;20976;-77
2023/06/06 06:33:53;;;;;;;4.20;3.47;;;;;;;22.52;42.93;97299.63;4803116;29;20225;-77
2023/06/06 06:36:20;;;;;;;4.00;3.60;;;;;;;22.65;43.22;97295.19;4775090;29;20246;-77
2023/06/06 06:38:46;;;;;;;4.18;2.88;;;;;;;22.89;42.55;97292.69;4792368;29;20176;-77
2023/06/06 06:41:11;;;;;;;6.47;3.40;;;;;;;23.02;42.63;97295.47;4806883;29;20636;-78
2023/06/06 06:43:37;;;;;;;3.47;3.00;;;;;;;23.24;41.29;97297.81;4782205;29;20206;-77
2023/06/06 06:46:02;;;;;;;3.60;3.30;;;;;;;23.46;40.79;97306.56;4785360;29;20176;-77
2023/06/06 06:48:27;;;;;;;3.30;3.00;;;;;;;23.59;41.01;97297.53;4792701;29;20271;-77
2023/06/06 06:50:53;;;;;;;3.42;3.13;;;;;;;23.77;40.21;97297.38;4793304;29;20229;-78
2023/06/06 06:53:18;;;;;;;3.38;3.10;;;;;;;23.81;40.31;97303.59;4777561;29;20250;-77
2023/06/06 06:55:45;;;;;;;3.45;3.15;;;;;;;23.79;39.14;97297.84;4778393;29;20577;-77
2023/06/06 06:58:25;;;;;;;3.53;2.85;;;;;;;23.66;40.60;97297.78;4806695;29;20841;-77
2023/06/06 07:00:53;;;;;;;3.63;3.00;;;;;;;24.01;40.50;97310.00;4798570;29;20685;-77
2023/06/06 07:03:20;;;;;;;3.13;2.83;;;;;;;24.16;39.84;97309.34;4796286;29;20656;-79
2023/06/06 07:05:46;;;;;;;3.63;3.33;;;;;;;24.46;39.17;97307.28;4770141;29;20423;-77
2023/06/06 07:08:11;;;;;;;3.45;2.83;;;;;;;24.77;38.82;97311.31;4803704;29;20190;-78
2023/06/06 07:10:39;;;;;;;3.83;2.95;;;;;;;24.79;38.30;97313.66;4788084;29;20730;-79
2023/06/06 07:13:04;;;;;;;12.95;4.10;;;;;;;24.50;38.99;97312.72;4821735;29;20280;-78
2023/06/06 07:15:30;;;;;;;3.53;3.08;;;;;;;24.72;38.46;97310.78;4794397;29;20708;-77
2023/06/06 07:17:55;;;;;;;3.35;3.05;;;;;;;24.71;38.11;97303.88;4809670;29;20209;-77
2023/06/06 07:20:23;;;;;;;4.03;3.20;;;;;;;24.58;37.80;97305.78;4778857;29;20136;-78
2023/06/06 07:22:52;;;;;;;3.50;3.20;;;;;;;24.86;38.11;97312.00;4785367;29;20193;-78
2023/06/06 07:25:18;;;;;;;3.40;3.10;;;;;;;24.89;37.25;97307.09;4799712;29;20198;-78
2023/06/06 07:27:43;;;;;;;3.75;3.45;;;;;;;24.71;37.52;97317.19;4780671;29;20300;-78
2023/06/06 07:30:12;;;;;;;3.10;2.80;;;;;;;24.73;36.88;97318.44;4786804;29;20616;-79
2023/06/06 07:32:39;;;;;;;3.33;3.03;;;;;;;24.76;37.65;97320.44;4805770;29;20654;-79
2023/06/06 07:35:06;;;;;;;4.78;3.00;;;;;;;25.10;37.45;97306.94;4807441;29;20246;-77
2023/06/06 07:37:31;;;;;;;3.92;3.53;;;;;;;25.56;37.24;97324.28;4804886;29;20261;-79
2023/06/06 07:39:56;;;;;;;3.38;2.88;;;;;;;25.69;36.73;97310.94;4795162;29;20340;-78
2023/06/06 07:42:22;;;;;;;3.40;3.10;;;;;;;25.93;36.15;97313.47;4778160;29;20539;-77
2023/06/06 07:44:48;;;;;;;3.42;3.13;;;;;;;26.09;35.22;97318.06;4798064;29;20198;-78
2023/06/06 07:47:13;;;;;;;3.58;3.25;;;;;;;26.26;33.92;97308.97;4778575;29;20699;-78
2023/06/06 07:49:41;;;;;;;2.92;2.72;;;;;;;26.53;34.10;97310.00;4794643;29;20261;-79
2023/06/06 07:52:06;;;;;;;3.83;2.90;;;;;;;26.37;34.52;97301.22;4809447;29;20204;-78
2023/06/06 07:54:31;;;;;;;3.35;2.80;;;;;;;26.62;34.79;97312.50;4796862;29;20237;-77
2023/06/06 07:56:59;;;;;;;3.25;2.90;;;;;;;26.80;33.51;97297.69;4803503;29;20210;-77
2023/06/06 07:59:26;;;;;;;2.85;2.60;;;;;;;27.16;33.07;97303.78;4776433;29;20561;-78
2023/06/06 08:01:52;;;;;;;4.57;2.80;;;;;;;27.13;32.18;97296.47;4806137;29;20292;-79
2023/06/06 08:04:17;;;;;;;2.97;2.58;;;;;;;27.39;32.37;97305.78;4791860;29;20268;-78
2023/06/06 08:06:43;;;;;;;3.67;2.63;;;;;;;27.66;32.12;97296.00;4789556;29;20218;-78
2023/06/06 08:09:08;;;;;;;3.92;3.00;;;;;;;27.99;32.34;97298.16;4809138;29;20204;-77
2023/06/06 08:11:34;;;;;;;4.20;2.83;;;;;;;28.01;29.56;97301.25;4810580;29;20369;-79
2023/06/06 08:14:00;;;;;;;2.97;2.40;;;;;;;27.98;30.98;97303.84;4784324;29;20202;-77
2023/06/06 08:16:26;;;;;;;5.05;2.47;;;;;;;27.90;30.53;97302.16;4787840;29;20301;-77
2023/06/06 08:18:51;;;;;;;2.60;2.40;;;;;;;28.10;28.52;97303.69;4782708;29;20738;-78
2023/06/06 08:21:17;;;;;;;3.17;2.85;;;;;;;28.30;30.62;97300.94;4799000;29;20224;-79
2023/06/06 08:23:42;;;;;;;2.75;2.55;;;;;;;28.19;29.32;97306.91;4783603;29;20724;-78
2023/06/06 08:26:08;;;;;;;3.33;2.50;;;;;;;28.17;28.39;97297.66;4798796;29;20292;-79
2023/06/06 08:28:33;;;;;;;2.95;2.70;;;;;;;28.37;28.42;97306.41;4797826;29;20767;-77
2023/06/06 08:31:01;;;;;;;2.55;2.35;;;;;;;28.49;28.64;97300.88;4783284;29;20629;-78
2023/06/06 08:33:26;;;;;;;3.33;3.03;;;;;;;28.47;27.71;97303.13;4810261;29;20194;-80
2023/06/06 08:35:51;;;;;;;3.03;2.72;;;;;;;28.67;28.49;97293.13;4813271;29;20218;-79
2023/06/06 08:38:17;;;;;;;3.10;2.90;;;;;;;28.60;28.50;97305.66;4812749;29;20378;-80
2023/06/06 08:40:43;;;;;;;2.72;2.53;;;;;;;28.63;27.28;97300.34;4812356;29;20206;-78
2023/06/06 08:43:10;;;;;;;3.95;2.75;;;;;;;28.70;26.91;97297.00;4797032;29;20191;-78
2023/06/06 08:45:36;;;;;;;2.97;2.55;;;;;;;28.89;28.08;97296.91;4779324;29;20168;-79
2023/06/06 08:48:03;;;;;;;2.95;2.65;;;;;;;29.11;27.02;97302.53;4805682;29;20287;-78
2023/06/06 08:50:30;;;;;;;3.42;2.63;;;;;;;28.79;28.20;97302.88;4797539;29;20264;-79
2023/06/06 08:52:56;;;;;;;2.80;2.50;;;;;;;29.16;27.61;97298.75;4806280;29;20213;-79
2023/06/06 08:55:22;;;;;;;2.83;2.63;;;;;;;29.25;27.86;97313.47;4805164;29;20166;-78
2023/06/06 08:57:48;;;;;;;3.60;3.10;;;;;;;29.56;28.93;97318.81;4811854;29;20689;-80
2023/06/06 09:00:23;;;;;;;2.65;2.45;;;;;;;29.80;27.74;97306.81;4782596;29;20184;-78
2023/06/06 09:02:50;;;;;;;3.40;2.97;;;;;;;29.94;26.31;97308.88;4792669;29;20219;-79
2023/06/06 09:05:18;;;;;;;2.85;2.63;;;;;;;29.93;26.77;97301.97;4812041;29;20206;-80
2023/06/06 09:07:44;;;;;;;3.83;3.53;;;;;;;29.74;26.25;97314.41;4790091;29;20284;-78
2023/06/06 09:10:09;;;;;;;4.40;2.95;;;;;;;29.50;27.37;97313.00;4787843;29;20384;-78
2023/06/06 09:12:46;;;;;;;3.53;3.22;;;;;;;29.46;26.65;97314.88;4790271;29;20285;-79
2023/06/06 09:15:12;;;;;;;4.00;2.83;;;;;;;29.25;25.71;97323.41;4795249;29;20255;-77
2023/06/06 09:17:39;;;;;;;3.03;2.75;;;;;;;29.10;26.94;97317.84;4805759;29;20394;-80
2023/06/06 09:20:09;;;;;;;3.75;3.28;;;;;;;29.07;27.19;97315.13;4785410;29;20212;-79
2023/06/06 09:22:45;;;;;;;4.10;3.13;;;;;;;29.30;26.94;97323.09;4806214;29;20290;-80
2023/06/06 09:25:17;;;;;;;3.30;3.00;;;;;;;29.11;26.79;97319.38;4793268;29;20301;-77
2023/06/06 09:27:43;;;;;;;3.20;3.00;;;;;;;29.17;27.09;97313.72;4807419;29;20210;-78
2023/06/06 09:30:23;;;;;;;3.30;3.00;;;;;;;29.12;27.90;97314.81;4772205;29;20195;-82
2023/06/06 09:32:53;;;;;;;3.42;2.83;;;;;;;29.73;28.16;97309.41;4805467;29;20283;-79
2023/06/06 09:35:19;;;;;;;3.50;3.20;;;;;;;29.96;25.95;97317.34;4789676;29;20179;-78
2023/06/06 09:37:46;;;;;;;4.07;3.30;;;;;;;30.13;27.37;97307.91;4827213;29;20357;-79
2023/06/06 09:40:16;;;;;;;3.97;3.13;;;;;;;30.20;26.68;97314.09;4791173;29;20820;-79
2023/06/06 09:42:44;;;;;;;3.20;2.90;;;;;;;29.52;26.57;97316.84;4782419;29;20942;-78
2023/06/06 09:45:17;;;;;;;3.33;3.05;;;;;;;30.35;26.86;97303.47;4793675;29;20319;-80
2023/06/06 09:47:44;;;;;;;3.95;3.65;;;;;;;30.31;24.83;97314.19;4809454;29;20276;-79
2023/06/06 09:50:10;;;;;;;3.20;2.90;;;;;;;30.74;26.32;97316.44;4812630;29;20423;-79
2023/06/06 09:52:36;;;;;;;5.10;3.75;;;;;;;30.67;27.10;97311.81;4796560;29;20344;-80
2023/06/06 09:55:06;;;;;;;3.55;3.22;;;;;;;30.73;25.15;97315.69;4797135;29;20226;-78
2023/06/06 09:57:34;;;;;;;3.30;3.10;;;;;;;30.76;26.93;97314.94;4797665;29;20333;-79
2023/06/06 10:00:10;;;;;;;3.97;3.20;;;;;;;30.76;25.75;97314.94;4797382;29;20352;-78
2023/06/06 10:02:42;;;;;;;3.83;3.53;;;;;;;30.76;24.25;97317.63;4808599;29;20718;-79
2023/06/06 10:05:12;;;;;;;4.45;3.38;;;;;;;30.28;24.97;97314.97;4796691;29;20591;-78
2023/06/06 10:07:40;;;;;;;4.32;3.10;;;;;;;29.66;25.57;97312.78;4781704;29;20669;-78
2023/06/06 10:10:07;;;;;;;3.30;3.00;;;;;;;30.13;25.33;97307.91;4796262;29;20220;-79
2023/06/06 10:12:33;;;;;;;3.75;3.45;;;;;;;30.68;25.57;97307.22;4808028;29;20713;-79
2023/06/06 10:15:00;;;;;;;3.15;2.92;;;;;;;31.26;24.64;97292.19;4808264;29;20676;-78
2023/06/06 10:17:26;;;;;;;3.90;3.60;;;;;;;31.70;23.36;97289.28;4789669;29;20663;-78
2023/06/06 10:19:55;;;;;;;3.80;3.50;;;;;;;31.74;24.42;97297.34;4806695;29;20242;-79
2023/06/06 10:22:21;;;;;;;3.40;3.10;;;;;;;31.88;24.92;97297.38;4788590;29;20295;-80
2023/06/06 10:24:47;;;;;;;3.17;2.97;;;;;;;31.94;24.70;97292.38;4797245;29;20588;-78
2023/06/06 10:27:18;;;;;;;4.45;3.17;;;;;;;31.99;24.01;97291.22;4808732;29;20292;-79
2023/06/06 10:29:49;;;;;;;3.92;3.63;;;;;;;31.69;23.81;97295.78;4775291;29;20195;-78
2023/06/06 10:32:20;;;;;;;3.10;2.90;;;;;;;32.29;22.55;97291.66;4810163;29;20191;-79
2023/06/06 10:34:48;;;;;;;3.42;3.13;;;;;;;31.65;21.75;97297.72;4814605;29;20376;-78
2023/06/06 10:37:18;;;;;;;3.30;3.03;;;;;;;31.37;22.86;97291.06;4779812;29;20247;-78
2023/06/06 10:39:47;;;;;;;3.42;2.88;;;;;;;31.36;22.67;97280.69;4805000;29;20266;-78
2023/06/06 10:42:15;;;;;;;3.38;2.78;;;;;;;31.15;22.80;97286.75;4824029;29;20195;-79
2023/06/06 10:44:43;;;;;;;3.70;3.40;;;;;;;31.48;22.66;97280.34;4798987;29;20110;-77
2023/06/06 10:47:24;;;;;;;3.40;2.95;;;;;;;31.12;22.96;97287.50;4809417;29;20726;-80
2023/06/06 10:50:02;;;;;;;4.00;3.55;;;;;;;31.31;23.04;97279.13;4812474;29;20220;-79
2023/06/06 10:53:07;;;;;;;3.50;3.25;;;;;;;31.61;22.63;97285.41;4811375;29;20273;-78
2023/06/06 10:55:33;;;;;;;3.70;3.40;;;;;;;31.75;23.10;97277.34;4785694;29;20234;-79
2023/06/06 10:58:04;;;;;;;3.55;3.25;;;;;;;31.74;23.62;97278.50;4793771;29;20615;-79
2023/06/06 11:00:43;;;;;;;3.47;3.17;;;;;;;31.21;23.33;97281.78;4794493;29;20182;-80
2023/06/06 11:03:13;;;;;;;4.22;3.90;;;;;;;30.52;23.53;97285.97;4793034;29;20223;-79
2023/06/06 11:06:00;;;;;;;4.80;3.65;;;;;;;30.53;24.05;97288.28;4795255;29;20721;-78
2023/06/06 11:08:54;;;;;;;3.90;3.47;;;;;;;30.55;23.89;97271.78;4812678;29;20193;-78
2023/06/06 11:11:30;;;;;;;4.53;3.72;;;;;;;30.78;22.97;97283.09;4795637;29;20663;-79
2023/06/06 11:14:03;;;;;;;4.30;3.60;;;;;;;30.88;23.18;97268.16;4811516;29;20372;-78
2023/06/06 11:16:38;;;;;;;3.78;3.40;;;;;;;31.37;21.14;97266.84;4789823;29;20648;-80
2023/06/06 11:19:21;;;;;;;4.75;4.30;;;;;;;31.11;22.08;97265.22;4803049;29;20356;-81
2023/06/06 11:21:51;;;;;;;3.97;3.65;;;;;;;30.23;23.42;97266.94;4812331;29;20159;-79
2023/06/06 11:24:20;;;;;;;4.13;3.40;;;;;;;29.23;24.03;97275.50;4795878;29;20205;-78
2023/06/06 11:26:46;;;;;;;3.60;3.30;;;;;;;28.67;24.65;97271.72;4818606;29;20197;-78
2023/06/06 11:29:12;;;;;;;3.78;3.47;;;;;;;28.29;25.39;97277.97;4796146;29;20402;-77
2023/06/06 11:31:38;;;;;;;4.65;3.70;;;;;;;28.46;25.64;97282.06;4810851;29;20250;-78
2023/06/06 11:34:07;;;;;;;4.03;3.70;;;;;;;28.45;26.78;97278.63;4794477;29;20273;-78